Time,TemperatureF,DewpointF,PressureIn,WindDirection,WindDirectionDegrees,WindSpeedMPH,WindSpeedGustMPH,Humidity,HourlyPrecipIn,Conditions,Clouds,dailyrainin,SoftwareType,DateUTC
2013-03-29 00:01:00,46.1,23.1,30.00,East,101,3.0,3.0,40,0.00,,,0.00,Wunderground v.1.15,2013-03-29 06:01:00,
2013-03-29 00:05:00,46.0,23.6,30.01,NE,40,2.0,7.0,41,0.00,,,0.00,Wunderground v.1.15,2013-03-29 06:05:00,
2013-03-29 00:10:00,45.3,23.5,30.01,ESE,119,3.0,7.0,42,0.00,,,0.00,Wunderground v.1.15,2013-03-29 06:10:00,
2013-03-29 00:15:00,45.0,23.8,30.01,SE,135,3.0,3.0,43,0.00,,,0.00,Wunderground v.1.15,2013-03-29 06:15:00,
2013-03-29 00:20:00,44.5,23.9,30.01,SE,142,2.0,3.0,44,0.00,,,0.00,Wunderground v.1.15,2013-03-29 06:20:00,
2013-03-29 00:25:00,44.1,23.6,30.01,SE,132,2.0,2.0,44,0.00,,,0.00,Wunderground v.1.15,2013-03-29 06:25:00,
2013-03-29 00:30:00,43.8,23.3,30.01,East,98,1.0,2.0,44,0.00,,,0.00,Wunderground v.1.15,2013-03-29 06:30:00,
2013-03-29 00:35:00,43.7,23.7,30.01,SE,142,1.0,2.0,45,0.00,,,0.00,Wunderground v.1.15,2013-03-29 06:35:00,
2013-03-29 00:40:00,43.5,23.5,30.01,SE,127,2.0,2.0,45,0.00,,,0.00,Wunderground v.1.15,2013-03-29 06:40:00,
2013-03-29 00:50:00,43.3,23.4,30.01,ESE,116,2.0,2.0,45,0.00,,,0.00,Wunderground v.1.15,2013-03-29 06:50:00,
2013-03-29 01:00:00,43.2,23.3,30.01,ESE,113,3.0,5.0,45,0.00,,,0.00,Wunderground v.1.15,2013-03-29 07:00:00,
2013-03-29 01:05:00,43.3,23.9,30.00,ESE,115,3.0,14.0,46,0.00,,,0.00,Wunderground v.1.15,2013-03-29 07:05:00,
2013-03-29 01:10:00,43.3,23.9,30.01,ESE,114,2.0,3.0,46,0.00,,,0.00,Wunderground v.1.15,2013-03-29 07:10:00,
2013-03-29 01:15:00,43.3,23.4,30.00,ESE,118,2.0,3.0,45,0.00,,,0.00,Wunderground v.1.15,2013-03-29 07:15:00,
2013-03-29 01:20:00,43.4,23.4,30.01,ESE,123,3.0,3.0,45,0.00,,,0.00,Wunderground v.1.15,2013-03-29 07:20:00,
2013-03-29 01:25:00,43.3,23.4,30.01,ESE,112,2.0,3.0,45,0.00,,,0.00,Wunderground v.1.15,2013-03-29 07:25:00,
2013-03-29 01:30:00,43.1,23.7,30.01,East,90,2.0,2.0,46,0.00,,,0.00,Wunderground v.1.15,2013-03-29 07:30:00,
2013-03-29 01:35:00,43.0,23.6,30.01,SE,128,2.0,5.0,46,0.00,,,0.00,Wunderground v.1.15,2013-03-29 07:35:00,
2013-03-29 01:40:00,42.7,23.3,30.01,SE,124,2.0,3.0,46,0.00,,,0.00,Wunderground v.1.15,2013-03-29 07:40:00,
2013-03-29 01:45:00,42.5,23.7,30.01,ESE,109,3.0,3.0,47,0.00,,,0.00,Wunderground v.1.15,2013-03-29 07:45:00,
2013-03-29 01:50:00,42.4,23.6,30.01,SE,138,3.0,3.0,47,0.00,,,0.00,Wunderground v.1.15,2013-03-29 07:50:00,
2013-03-29 01:55:00,42.4,23.6,30.01,ESE,116,3.0,3.0,47,0.00,,,0.00,Wunderground v.1.15,2013-03-29 07:55:00,
2013-03-29 02:00:00,42.4,23.1,30.01,East,90,2.0,2.0,46,0.00,,,0.00,Wunderground v.1.15,2013-03-29 08:00:00,
2013-03-29 02:05:00,42.4,23.1,30.01,SE,145,2.0,11.0,46,0.00,,,0.00,Wunderground v.1.15,2013-03-29 08:05:00,
2013-03-29 02:10:00,42.4,23.1,30.01,SE,132,3.0,3.0,46,0.00,,,0.00,Wunderground v.1.15,2013-03-29 08:10:00,
2013-03-29 02:20:00,42.2,23.4,30.01,SE,125,2.0,2.0,47,0.00,,,0.00,Wunderground v.1.15,2013-03-29 08:20:00,
2013-03-29 02:25:00,42.2,23.4,30.01,ESE,118,2.0,4.0,47,0.00,,,0.00,Wunderground v.1.15,2013-03-29 08:25:00,
2013-03-29 02:30:00,42.1,23.3,30.01,SE,138,3.0,3.0,47,0.00,,,0.00,Wunderground v.1.15,2013-03-29 08:30:00,
2013-03-29 02:40:00,42.0,23.2,30.01,ESE,123,2.0,2.0,47,0.00,,,0.00,Wunderground v.1.15,2013-03-29 08:40:00,
2013-03-29 02:45:00,42.0,23.2,30.01,SSE,155,2.0,2.0,47,0.00,,,0.00,Wunderground v.1.15,2013-03-29 08:45:00,
2013-03-29 02:50:00,42.0,23.2,30.01,SSE,148,2.0,2.0,47,0.00,,,0.00,Wunderground v.1.15,2013-03-29 08:50:00,
2013-03-29 02:55:00,42.0,23.2,30.01,SSE,148,1.0,2.0,47,0.00,,,0.00,Wunderground v.1.15,2013-03-29 08:55:00,
2013-03-29 03:05:00,41.8,23.5,30.01,SSE,148,0.0,13.0,48,0.00,,,0.00,Wunderground v.1.15,2013-03-29 09:05:00,
2013-03-29 03:10:00,41.7,22.9,30.01,SSE,148,0.0,13.0,47,0.00,,,0.00,Wunderground v.1.15,2013-03-29 09:10:00,
2013-03-29 03:15:00,41.7,22.9,30.01,SSE,147,0.0,3.0,47,0.00,,,0.00,Wunderground v.1.15,2013-03-29 09:15:00,
2013-03-29 03:20:00,41.6,22.8,30.01,SE,141,1.0,3.0,47,0.00,,,0.00,Wunderground v.1.15,2013-03-29 09:20:00,
2013-03-29 03:25:00,41.6,22.8,30.01,SE,142,1.0,1.0,47,0.00,,,0.00,Wunderground v.1.15,2013-03-29 09:25:00,
2013-03-29 03:30:00,41.5,22.7,30.01,SE,137,1.0,1.0,47,0.00,,,0.00,Wunderground v.1.15,2013-03-29 09:30:00,
2013-03-29 03:35:00,41.6,23.3,30.01,SE,135,1.0,2.0,48,0.00,,,0.00,Wunderground v.1.15,2013-03-29 09:35:00,
2013-03-29 03:40:00,41.6,22.8,30.01,SE,136,1.0,2.0,47,0.00,,,0.00,Wunderground v.1.15,2013-03-29 09:40:00,
2013-03-29 03:45:00,41.5,23.2,30.01,SSE,150,1.0,2.0,48,0.00,,,0.00,Wunderground v.1.15,2013-03-29 09:45:00,
2013-03-29 03:50:00,41.3,23.1,30.01,SE,146,1.0,2.0,48,0.00,,,0.00,Wunderground v.1.15,2013-03-29 09:50:00,
2013-03-29 03:55:00,41.1,22.9,30.01,SE,145,1.0,3.0,48,0.00,,,0.00,Wunderground v.1.15,2013-03-29 09:55:00,
2013-03-29 04:05:00,41.0,22.8,30.01,SE,138,2.0,10.0,48,0.00,,,0.00,Wunderground v.1.15,2013-03-29 10:05:00,
2013-03-29 04:10:00,41.0,22.8,30.01,SE,134,2.0,10.0,48,0.00,,,0.00,Wunderground v.1.15,2013-03-29 10:10:00,
2013-03-29 04:15:00,41.0,22.8,30.01,SE,134,1.0,2.0,48,0.00,,,0.00,Wunderground v.1.15,2013-03-29 10:15:00,
2013-03-29 04:20:00,41.1,22.9,30.01,ESE,119,1.0,2.0,48,0.00,,,0.00,Wunderground v.1.15,2013-03-29 10:20:00,
2013-03-29 04:25:00,41.1,22.9,30.01,ESE,119,2.0,2.0,48,0.00,,,0.00,Wunderground v.1.15,2013-03-29 10:25:00,
2013-03-29 04:30:00,41.3,22.6,30.02,East,90,2.0,2.0,47,0.00,,,0.00,Wunderground v.1.15,2013-03-29 10:30:00,
2013-03-29 04:35:00,41.5,22.7,30.02,East,94,2.0,2.0,47,0.00,,,0.00,Wunderground v.1.15,2013-03-29 10:35:00,
2013-03-29 04:40:00,41.7,22.9,30.02,ESE,109,1.0,4.0,47,0.00,,,0.00,Wunderground v.1.15,2013-03-29 10:40:00,
2013-03-29 04:45:00,41.7,22.4,30.02,ESE,110,1.0,2.0,46,0.00,,,0.00,Wunderground v.1.15,2013-03-29 10:45:00,
2013-03-29 04:50:00,41.8,22.5,30.03,ESE,109,2.0,2.0,46,0.00,,,0.00,Wunderground v.1.15,2013-03-29 10:50:00,
2013-03-29 04:55:00,41.9,23.6,30.03,ESE,110,1.0,1.0,48,0.00,,,0.00,Wunderground v.1.15,2013-03-29 10:55:00,
2013-03-29 05:05:00,41.9,22.6,30.04,ESE,111,0.0,9.0,46,0.00,,,0.00,Wunderground v.1.15,2013-03-29 11:05:00,
2013-03-29 05:10:00,41.8,23.0,30.04,ESE,111,0.0,9.0,47,0.00,,,0.00,Wunderground v.1.15,2013-03-29 11:10:00,
2013-03-29 05:15:00,41.6,23.3,30.04,ESE,111,0.0,1.0,48,0.00,,,0.00,Wunderground v.1.15,2013-03-29 11:15:00,
2013-03-29 05:20:00,41.4,23.6,30.04,ESE,113,0.0,3.0,49,0.00,,,0.00,Wunderground v.1.15,2013-03-29 11:20:00,
2013-03-29 05:25:00,41.1,23.4,30.04,SSE,147,1.0,1.0,49,0.00,,,0.00,Wunderground v.1.15,2013-03-29 11:25:00,
2013-03-29 05:30:00,41.1,23.9,30.05,SE,146,1.0,1.0,50,0.00,,,0.00,Wunderground v.1.15,2013-03-29 11:30:00,
2013-03-29 05:35:00,41.1,23.4,30.05,SE,146,0.0,1.0,49,0.00,,,0.00,Wunderground v.1.15,2013-03-29 11:35:00,
2013-03-29 05:40:00,41.0,23.3,30.05,SE,146,1.0,1.0,49,0.00,,,0.00,Wunderground v.1.15,2013-03-29 11:40:00,
2013-03-29 05:45:00,41.0,24.7,30.05,SE,146,1.0,1.0,52,0.00,,,0.00,Wunderground v.1.15,2013-03-29 11:45:00,
2013-03-29 05:50:00,41.1,23.4,30.06,SE,144,1.0,3.0,49,0.00,,,0.00,Wunderground v.1.15,2013-03-29 11:50:00,
2013-03-29 05:55:00,41.1,23.4,30.06,ESE,108,2.0,2.0,49,0.00,,,0.00,Wunderground v.1.15,2013-03-29 11:55:00,
2013-03-29 06:01:00,41.1,22.9,30.06,ESE,108,1.0,1.0,48,0.00,,,0.00,Wunderground v.1.15,2013-03-29 12:01:00,
2013-03-29 06:10:00,41.2,22.5,30.05,ESE,111,2.0,9.0,47,0.00,,,0.00,Wunderground v.1.15,2013-03-29 12:10:00,
2013-03-29 06:15:00,41.5,22.7,30.05,East,92,2.0,5.0,47,0.00,,,0.00,Wunderground v.1.15,2013-03-29 12:15:00,
2013-03-29 06:20:00,41.8,23.0,30.06,ESE,105,3.0,5.0,47,0.00,,,0.00,Wunderground v.1.15,2013-03-29 12:20:00,
2013-03-29 06:25:00,42.2,23.4,30.06,East,101,2.0,2.0,47,0.00,,,0.00,Wunderground v.1.15,2013-03-29 12:25:00,
2013-03-29 06:30:00,42.5,23.7,30.05,ESE,122,2.0,2.0,47,0.00,,,0.00,Wunderground v.1.15,2013-03-29 12:30:00,
2013-03-29 06:35:00,42.7,24.8,30.05,ESE,117,2.0,3.0,49,0.00,,,0.00,Wunderground v.1.15,2013-03-29 12:35:00,
2013-03-29 06:40:00,43.0,25.1,30.06,ESE,104,3.0,3.0,49,0.00,,,0.00,Wunderground v.1.15,2013-03-29 12:40:00,
2013-03-29 06:50:00,43.1,25.7,30.06,ESE,109,1.0,2.0,50,0.00,,,0.00,Wunderground v.1.15,2013-03-29 12:50:00,
2013-03-29 06:55:00,43.1,26.2,30.06,ESE,110,2.0,2.0,51,0.00,,,0.00,Wunderground v.1.15,2013-03-29 12:55:00,
2013-03-29 07:00:00,43.2,25.8,30.06,ESE,112,2.0,2.0,50,0.00,,,0.00,Wunderground v.1.15,2013-03-29 13:00:00,
2013-03-29 07:05:00,43.2,25.8,30.06,ESE,116,2.0,6.0,50,0.00,,,0.00,Wunderground v.1.15,2013-03-29 13:05:00,
2013-03-29 07:10:00,43.1,26.2,30.06,ESE,114,2.0,2.0,51,0.00,,,0.00,Wunderground v.1.15,2013-03-29 13:10:00,
2013-03-29 07:15:00,43.0,26.1,30.06,ESE,113,1.0,2.0,51,0.00,,,0.00,Wunderground v.1.15,2013-03-29 13:15:00,
2013-03-29 07:20:00,42.8,25.9,30.06,ESE,117,2.0,2.0,51,0.00,,,0.00,Wunderground v.1.15,2013-03-29 13:20:00,
2013-03-29 07:25:00,42.6,25.2,30.06,ESE,115,2.0,3.0,50,0.00,,,0.00,Wunderground v.1.15,2013-03-29 13:25:00,
2013-03-29 07:30:00,42.4,25.5,30.06,ESE,121,2.0,2.0,51,0.00,,,0.00,Wunderground v.1.15,2013-03-29 13:30:00,
2013-03-29 07:40:00,42.2,25.8,30.07,SE,128,2.0,2.0,52,0.00,,,0.00,Wunderground v.1.15,2013-03-29 13:40:00,
2013-03-29 07:45:00,42.3,25.9,30.07,SE,129,2.0,2.0,52,0.00,,,0.00,Wunderground v.1.15,2013-03-29 13:45:00,
2013-03-29 07:50:00,42.5,26.1,30.07,SE,131,1.0,1.0,52,0.00,,,0.00,Wunderground v.1.15,2013-03-29 13:50:00,
2013-03-29 07:55:00,42.7,25.8,30.07,SE,130,2.0,2.0,51,0.00,,,0.00,Wunderground v.1.15,2013-03-29 13:55:00,
2013-03-29 08:01:00,43.0,26.1,30.07,SE,129,2.0,2.0,51,0.00,,,0.00,Wunderground v.1.15,2013-03-29 14:01:00,
2013-03-29 08:05:00,43.2,25.8,30.07,SE,130,1.0,9.0,50,0.00,,,0.00,Wunderground v.1.15,2013-03-29 14:05:00,
2013-03-29 08:10:00,43.4,26.0,30.07,SE,132,1.0,9.0,50,0.00,,,0.00,Wunderground v.1.15,2013-03-29 14:10:00,
2013-03-29 08:20:00,43.8,26.3,30.07,SE,140,2.0,3.0,50,0.00,,,0.00,Wunderground v.1.15,2013-03-29 14:20:00,
2013-03-29 08:25:00,44.0,27.0,30.07,SE,141,2.0,3.0,51,0.00,,,0.00,Wunderground v.1.15,2013-03-29 14:25:00,
2013-03-29 08:30:00,44.5,27.0,30.07,SE,144,2.0,3.0,50,0.00,,,0.00,Wunderground v.1.15,2013-03-29 14:30:00,
2013-03-29 08:35:00,45.1,27.1,30.07,SE,144,1.0,2.0,49,0.00,,,0.00,Wunderground v.1.15,2013-03-29 14:35:00,
2013-03-29 08:40:00,46.1,27.5,30.06,SE,146,1.0,2.0,48,0.00,,,0.00,Wunderground v.1.15,2013-03-29 14:40:00,
2013-03-29 08:50:00,48.1,28.3,30.06,SE,134,1.0,2.0,46,0.00,,,0.00,Wunderground v.1.15,2013-03-29 14:50:00,
2013-03-29 08:55:00,48.6,27.1,30.06,SE,126,1.0,2.0,43,0.00,,,0.00,Wunderground v.1.15,2013-03-29 14:55:00,
2013-03-29 09:00:00,48.7,27.7,30.06,SE,145,2.0,6.0,44,0.00,,,0.00,Wunderground v.1.15,2013-03-29 15:00:00,
2013-03-29 09:05:00,48.8,27.3,30.06,SE,137,3.0,9.0,43,0.00,,,0.00,Wunderground v.1.15,2013-03-29 15:05:00,
2013-03-29 09:10:00,49.4,28.4,30.06,SSE,148,2.0,3.0,44,0.00,,,0.00,Wunderground v.1.15,2013-03-29 15:10:00,
2013-03-29 09:15:00,50.1,27.9,30.05,SE,137,3.0,3.0,42,0.00,,,0.00,Wunderground v.1.15,2013-03-29 15:15:00,
2013-03-29 09:20:00,50.4,27.6,30.05,SSE,157,3.0,4.0,41,0.00,,,0.00,Wunderground v.1.15,2013-03-29 15:20:00,
2013-03-29 09:30:00,50.5,27.7,30.05,SSE,152,4.0,4.0,41,0.00,,,0.00,Wunderground v.1.15,2013-03-29 15:30:00,
2013-03-29 09:35:00,50.4,27.6,30.05,SE,142,4.0,5.0,41,0.00,,,0.00,Wunderground v.1.15,2013-03-29 15:35:00,
2013-03-29 09:40:00,50.5,27.0,30.05,SE,128,4.0,4.0,40,0.00,,,0.00,Wunderground v.1.15,2013-03-29 15:40:00,
2013-03-29 09:45:00,50.7,27.8,30.05,SSE,157,4.0,4.0,41,0.00,,,0.00,Wunderground v.1.15,2013-03-29 15:45:00,
2013-03-29 09:50:00,50.9,27.4,30.05,SE,136,2.0,3.0,40,0.00,,,0.00,Wunderground v.1.15,2013-03-29 15:50:00,
2013-03-29 10:05:00,50.9,27.4,30.05,SE,142,3.0,3.0,40,0.00,,,0.00,Wunderground v.1.15,2013-03-29 16:05:00,
2013-03-29 10:10:00,51.1,27.6,30.04,SE,126,2.0,3.0,40,0.00,,,0.00,Wunderground v.1.15,2013-03-29 16:10:00,
2013-03-29 10:15:00,51.3,26.5,30.04,ESE,114,2.0,2.0,38,0.00,,,0.00,Wunderground v.1.15,2013-03-29 16:15:00,
2013-03-29 10:20:00,51.5,27.3,30.04,ESE,117,2.0,2.0,39,0.00,,,0.00,Wunderground v.1.15,2013-03-29 16:20:00,
2013-03-29 10:30:00,52.8,27.2,30.03,SSE,148,1.0,3.0,37,0.00,,,0.00,Wunderground v.1.15,2013-03-29 16:30:00,
2013-03-29 10:35:00,53.4,27.8,30.03,SSE,149,1.0,1.0,37,0.00,,,0.00,Wunderground v.1.15,2013-03-29 16:35:00,
2013-03-29 10:40:00,55.1,27.2,30.03,SSE,168,2.0,2.0,34,0.00,,,0.00,Wunderground v.1.15,2013-03-29 16:40:00,
2013-03-29 10:50:00,57.1,27.5,30.03,SSE,161,2.0,3.0,32,0.00,,,0.00,Wunderground v.1.15,2013-03-29 16:50:00,
2013-03-29 10:55:00,57.5,27.1,30.03,SSE,162,2.0,2.0,31,0.00,,,0.00,Wunderground v.1.15,2013-03-29 16:55:00,
2013-03-29 11:00:00,57.8,27.3,30.03,SSE,165,2.0,2.0,31,0.00,,,0.00,Wunderground v.1.15,2013-03-29 17:00:00,
2013-03-29 11:05:00,57.7,27.2,30.03,South,171,2.0,10.0,31,0.00,,,0.00,Wunderground v.1.15,2013-03-29 17:05:00,
2013-03-29 11:10:00,58.0,27.5,30.03,South,182,2.0,2.0,31,0.00,,,0.00,Wunderground v.1.15,2013-03-29 17:10:00,
2013-03-29 11:15:00,58.6,27.2,30.03,SSW,213,1.0,2.0,30,0.00,,,0.00,Wunderground v.1.15,2013-03-29 17:15:00,
2013-03-29 11:20:00,59.3,27.8,30.02,SW,232,1.0,1.0,30,0.00,,,0.00,Wunderground v.1.15,2013-03-29 17:20:00,
2013-03-29 11:25:00,59.8,27.4,30.02,NW,321,1.0,3.0,29,0.00,,,0.00,Wunderground v.1.15,2013-03-29 17:25:00,
2013-03-29 11:30:00,60.1,27.7,30.02,North,349,2.0,5.0,29,0.00,,,0.00,Wunderground v.1.15,2013-03-29 17:30:00,
2013-03-29 11:35:00,60.7,28.2,30.02,NNW,340,2.0,5.0,29,0.00,,,0.00,Wunderground v.1.15,2013-03-29 17:35:00,
2013-03-29 11:40:00,61.4,28.0,30.01,NNW,346,2.0,2.0,28,0.00,,,0.00,Wunderground v.1.15,2013-03-29 17:40:00,
2013-03-29 11:50:00,62.7,27.3,30.01,NW,323,2.0,5.0,26,0.00,,,0.00,Wunderground v.1.15,2013-03-29 17:50:00,
2013-03-29 11:55:00,62.3,27.9,30.01,NNW,334,4.0,5.0,27,0.00,,,0.00,Wunderground v.1.15,2013-03-29 17:55:00,
2013-03-29 12:05:00,62.3,26.9,30.00,WNW,303,3.0,7.0,26,0.00,,,0.00,Wunderground v.1.15,2013-03-29 18:05:00,
2013-03-29 12:10:00,62.0,27.6,30.00,NNW,345,4.0,7.0,27,0.00,,,0.00,Wunderground v.1.15,2013-03-29 18:10:00,
2013-03-29 12:20:00,62.2,27.8,30.00,NNW,342,4.0,8.0,27,0.00,,,0.00,Wunderground v.1.15,2013-03-29 18:20:00,
2013-03-29 12:25:00,62.5,27.1,30.00,North,355,5.0,6.0,26,0.00,,,0.00,Wunderground v.1.15,2013-03-29 18:25:00,
2013-03-29 12:30:00,62.3,27.9,30.00,North,5,5.0,7.0,27,0.00,,,0.00,Wunderground v.1.15,2013-03-29 18:30:00,
2013-03-29 12:35:00,62.2,26.9,30.00,North,355,5.0,5.0,26,0.00,,,0.00,Wunderground v.1.15,2013-03-29 18:35:00,
2013-03-29 12:40:00,61.8,27.4,29.99,SW,228,3.0,5.0,27,0.00,,,0.00,Wunderground v.1.15,2013-03-29 18:40:00,
2013-03-29 12:45:00,62.1,27.7,30.00,North,355,2.0,3.0,27,0.00,,,0.00,Wunderground v.1.15,2013-03-29 18:45:00,
2013-03-29 12:50:00,62.7,28.2,29.99,NNW,330,3.0,3.0,27,0.00,,,0.00,Wunderground v.1.15,2013-03-29 18:50:00,
2013-03-29 12:55:00,62.9,27.5,29.99,NNW,336,3.0,4.0,26,0.00,,,0.00,Wunderground v.1.15,2013-03-29 18:55:00,
2013-03-29 13:05:00,63.9,27.4,29.99,NW,317,4.0,10.0,25,0.00,,,0.00,Wunderground v.1.15,2013-03-29 19:05:00,
2013-03-29 13:10:00,63.5,27.0,29.98,WNW,286,3.0,10.0,25,0.00,,,0.00,Wunderground v.1.15,2013-03-29 19:10:00,
2013-03-29 13:20:00,63.8,27.3,29.97,NNW,335,3.0,6.0,25,0.00,,,0.00,Wunderground v.1.15,2013-03-29 19:20:00,
2013-03-29 13:25:00,64.2,27.6,29.97,North,351,4.0,4.0,25,0.00,,,0.00,Wunderground v.1.15,2013-03-29 19:25:00,
2013-03-29 13:30:00,64.4,26.8,29.96,NNW,348,4.0,9.0,24,0.00,,,0.00,Wunderground v.1.15,2013-03-29 19:30:00,
2013-03-29 13:40:00,63.6,27.1,29.96,WNW,302,3.0,3.0,25,0.00,,,0.00,Wunderground v.1.15,2013-03-29 19:40:00,
2013-03-29 13:45:00,64.1,27.5,29.95,WNW,291,3.0,3.0,25,0.00,,,0.00,Wunderground v.1.15,2013-03-29 19:45:00,
2013-03-29 13:50:00,65.4,26.6,29.95,NNW,334,3.0,4.0,23,0.00,,,0.00,Wunderground v.1.15,2013-03-29 19:50:00,
2013-03-29 13:55:00,64.4,25.8,29.95,NNW,347,5.0,10.0,23,0.00,,,0.00,Wunderground v.1.15,2013-03-29 19:55:00,
2013-03-29 14:00:00,62.5,26.2,29.95,NNW,344,5.0,6.0,25,0.00,,,0.00,Wunderground v.1.15,2013-03-29 20:00:00,
2013-03-29 14:05:00,61.6,26.3,29.95,NW,325,4.0,14.0,26,0.00,,,0.00,Wunderground v.1.15,2013-03-29 20:05:00,
2013-03-29 14:10:00,60.9,26.7,29.95,NNW,344,3.0,3.0,27,0.00,,,0.00,Wunderground v.1.15,2013-03-29 20:10:00,
2013-03-29 14:20:00,60.6,26.4,29.95,North,355,3.0,4.0,27,0.00,,,0.00,Wunderground v.1.15,2013-03-29 20:20:00,
2013-03-29 14:25:00,60.3,26.1,29.95,NW,321,4.0,5.0,27,0.00,,,0.00,Wunderground v.1.15,2013-03-29 20:25:00,
2013-03-29 14:30:00,61.1,26.8,29.94,NNW,344,4.0,4.0,27,0.00,,,0.00,Wunderground v.1.15,2013-03-29 20:30:00,
2013-03-29 14:35:00,62.6,26.2,29.94,North,355,3.0,4.0,25,0.00,,,0.00,Wunderground v.1.15,2013-03-29 20:35:00,
2013-03-29 14:40:00,64.0,26.4,29.94,North,349,4.0,12.0,24,0.00,,,0.00,Wunderground v.1.15,2013-03-29 20:40:00,
2013-03-29 14:45:00,64.3,26.7,29.93,North,9,6.0,16.0,24,0.00,,,0.00,Wunderground v.1.15,2013-03-29 20:45:00,
2013-03-29 14:50:00,63.2,25.8,29.94,WNW,301,8.0,8.0,24,0.00,,,0.00,Wunderground v.1.15,2013-03-29 20:50:00,
2013-03-29 14:55:00,62.7,26.3,29.94,North,360,8.0,8.0,25,0.00,,,0.00,Wunderground v.1.15,2013-03-29 20:55:00,
2013-03-29 15:00:00,61.3,25.1,29.93,North,355,7.0,8.0,25,0.00,,,0.00,Wunderground v.1.15,2013-03-29 21:00:00,
2013-03-29 15:10:00,59.0,25.0,29.93,NW,310,6.0,7.0,27,0.00,,,0.00,Wunderground v.1.15,2013-03-29 21:10:00,
2013-03-29 15:15:00,58.6,24.7,29.94,NW,311,5.0,7.0,27,0.00,,,0.00,Wunderground v.1.15,2013-03-29 21:15:00,
2013-03-29 15:20:00,58.4,25.4,29.94,NW,308,3.0,3.0,28,0.00,,,0.00,Wunderground v.1.15,2013-03-29 21:20:00,
2013-03-29 15:25:00,58.4,24.5,29.94,SSE,161,2.0,4.0,27,0.00,,,0.00,Wunderground v.1.15,2013-03-29 21:25:00,
2013-03-29 15:30:00,59.0,25.9,29.94,South,178,2.0,2.0,28,0.00,,,0.00,Wunderground v.1.15,2013-03-29 21:30:00,
2013-03-29 15:35:00,60.3,25.2,29.95,SSW,205,2.0,2.0,26,0.00,,,0.00,Wunderground v.1.15,2013-03-29 21:35:00,
2013-03-29 15:40:00,60.6,26.4,29.94,ESE,107,2.0,2.0,27,0.00,,,0.00,Wunderground v.1.15,2013-03-29 21:40:00,
2013-03-29 15:50:00,59.6,25.5,29.95,North,360,4.0,6.0,27,0.00,,,0.00,Wunderground v.1.15,2013-03-29 21:50:00,
2013-03-29 15:55:00,59.0,25.9,29.95,North,355,6.0,6.0,28,0.00,,,0.00,Wunderground v.1.15,2013-03-29 21:55:00,
2013-03-29 16:01:00,58.1,25.1,29.96,NW,325,6.0,6.0,28,0.00,,,0.00,Wunderground v.1.15,2013-03-29 22:01:00,
2013-03-29 16:05:00,57.6,25.5,29.96,NNW,331,6.0,18.0,29,0.00,,,0.00,Wunderground v.1.15,2013-03-29 22:05:00,
2013-03-29 16:10:00,57.1,25.9,29.97,NW,312,2.0,18.0,30,0.00,,,0.00,Wunderground v.1.15,2013-03-29 22:10:00,
2013-03-29 16:15:00,56.8,25.7,29.97,SE,143,1.0,4.0,30,0.00,,,0.00,Wunderground v.1.15,2013-03-29 22:15:00,
2013-03-29 16:20:00,55.9,24.9,29.97,SSE,157,3.0,4.0,30,0.00,,,0.00,Wunderground v.1.15,2013-03-29 22:20:00,
2013-03-29 16:30:00,55.3,26.7,29.98,NW,325,2.0,3.0,33,0.00,,,0.00,Wunderground v.1.15,2013-03-29 22:30:00,
2013-03-29 16:35:00,55.3,27.4,29.98,NNW,330,2.0,4.0,34,0.00,,,0.00,Wunderground v.1.15,2013-03-29 22:35:00,
2013-03-29 16:40:00,55.4,27.5,29.98,NW,317,2.0,4.0,34,0.00,,,0.00,Wunderground v.1.15,2013-03-29 22:40:00,
2013-03-29 16:45:00,55.5,27.6,29.98,NW,323,2.0,3.0,34,0.00,,,0.00,Wunderground v.1.15,2013-03-29 22:45:00,
2013-03-29 16:50:00,55.3,28.1,29.98,NW,325,2.0,3.0,35,0.00,,,0.00,Wunderground v.1.15,2013-03-29 22:50:00,
2013-03-29 16:55:00,55.0,28.5,29.98,NW,325,2.0,2.0,36,0.00,,,0.00,Wunderground v.1.15,2013-03-29 22:55:00,
2013-03-29 17:00:00,55.0,28.5,29.97,NW,324,1.0,2.0,36,0.00,,,0.00,Wunderground v.1.15,2013-03-29 23:00:00,
2013-03-29 17:05:00,55.1,28.6,29.97,NW,324,1.0,15.0,36,0.00,,,0.00,Wunderground v.1.15,2013-03-29 23:05:00,
2013-03-29 17:10:00,55.1,28.6,29.97,NW,323,1.0,1.0,36,0.00,,,0.00,Wunderground v.1.15,2013-03-29 23:10:00,
2013-03-29 17:20:00,55.1,28.6,29.97,NW,324,0.0,0.0,36,0.00,,,0.00,Wunderground v.1.15,2013-03-29 23:20:00,
2013-03-29 17:30:00,55.2,28.7,29.97,NW,324,0.0,0.0,36,0.00,,,0.00,Wunderground v.1.15,2013-03-29 23:30:00,
2013-03-29 17:35:00,55.3,28.8,29.97,NW,324,0.0,0.0,36,0.00,,,0.00,Wunderground v.1.15,2013-03-29 23:35:00,
2013-03-29 17:40:00,55.2,28.7,29.97,NW,324,0.0,0.0,36,0.00,,,0.00,Wunderground v.1.15,2013-03-29 23:40:00,
2013-03-29 17:45:00,55.0,29.2,29.97,NW,323,1.0,1.0,37,0.00,,,0.00,Wunderground v.1.15,2013-03-29 23:45:00,
2013-03-29 17:50:00,54.8,29.0,29.97,NW,324,0.0,0.0,37,0.00,,,0.00,Wunderground v.1.15,2013-03-29 23:50:00,
2013-03-29 17:55:00,54.7,28.9,29.98,NW,324,0.0,0.0,37,0.00,,,0.00,Wunderground v.1.15,2013-03-29 23:55:00,
2013-03-29 18:05:00,54.6,28.8,29.98,NW,324,0.0,10.0,37,0.00,,,0.00,Wunderground v.1.15,2013-03-30 00:05:00,
2013-03-29 18:10:00,54.7,28.9,29.98,NW,323,0.0,10.0,37,0.00,,,0.00,Wunderground v.1.15,2013-03-30 00:10:00,
2013-03-29 18:15:00,54.6,28.2,29.99,NW,323,0.0,0.0,36,0.00,,,0.00,Wunderground v.1.15,2013-03-30 00:15:00,
2013-03-29 18:20:00,54.5,28.1,29.99,NW,324,0.0,4.0,36,0.00,,,0.00,Wunderground v.1.15,2013-03-30 00:20:00,
2013-03-29 18:25:00,54.2,27.8,29.99,NW,324,1.0,2.0,36,0.00,,,0.00,Wunderground v.1.15,2013-03-30 00:25:00,
2013-03-29 18:30:00,54.2,27.1,29.99,NW,325,1.0,2.0,35,0.00,,,0.00,Wunderground v.1.15,2013-03-30 00:30:00,
2013-03-29 18:40:00,55.7,26.3,29.99,NW,322,1.0,1.0,32,0.00,,,0.00,Wunderground v.1.15,2013-03-30 00:40:00,
2013-03-29 18:45:00,56.1,25.1,29.99,NW,323,1.0,1.0,30,0.00,,,0.00,Wunderground v.1.15,2013-03-30 00:45:00,
2013-03-29 18:50:00,56.2,25.1,29.99,NW,323,1.0,2.0,30,0.00,,,0.00,Wunderground v.1.15,2013-03-30 00:50:00,
2013-03-29 18:55:00,56.0,25.8,29.99,NW,323,1.0,1.0,31,0.00,,,0.00,Wunderground v.1.15,2013-03-30 00:55:00,
2013-03-29 19:00:00,55.4,25.2,30.00,NW,323,1.0,1.0,31,0.00,,,0.00,Wunderground v.1.15,2013-03-30 01:00:00,
2013-03-29 19:05:00,55.0,25.6,30.00,NW,323,1.0,3.0,32,0.00,,,0.00,Wunderground v.1.15,2013-03-30 01:05:00,
2013-03-29 19:10:00,54.5,26.0,30.00,NW,323,0.0,0.0,33,0.00,,,0.00,Wunderground v.1.15,2013-03-30 01:10:00,
2013-03-29 19:15:00,54.0,26.2,30.00,NW,323,0.0,0.0,34,0.00,,,0.00,Wunderground v.1.15,2013-03-30 01:15:00,
2013-03-29 19:20:00,53.2,25.5,30.00,NW,323,0.0,0.0,34,0.00,,,0.00,Wunderground v.1.15,2013-03-30 01:20:00,
2013-03-29 19:25:00,52.7,25.8,30.00,NW,323,0.0,1.0,35,0.00,,,0.00,Wunderground v.1.15,2013-03-30 01:25:00,
2013-03-29 19:30:00,52.0,25.8,30.00,NW,323,0.0,0.0,36,0.00,,,0.00,Wunderground v.1.15,2013-03-30 01:30:00,
2013-03-29 19:35:00,51.7,26.2,30.00,NW,323,0.0,0.0,37,0.00,,,0.00,Wunderground v.1.15,2013-03-30 01:35:00,
2013-03-29 19:40:00,51.3,26.5,30.01,NW,323,0.0,0.0,38,0.00,,,0.00,Wunderground v.1.15,2013-03-30 01:40:00,
2013-03-29 19:45:00,50.9,25.5,30.01,NW,323,0.0,1.0,37,0.00,,,0.00,Wunderground v.1.15,2013-03-30 01:45:00,
2013-03-29 19:50:00,50.5,25.8,30.01,NW,323,1.0,1.0,38,0.00,,,0.00,Wunderground v.1.15,2013-03-30 01:50:00,
2013-03-29 19:55:00,50.3,26.3,30.01,NW,323,0.0,2.0,39,0.00,,,0.00,Wunderground v.1.15,2013-03-30 01:55:00,
2013-03-29 20:00:00,50.3,26.3,30.01,NW,323,0.0,1.0,39,0.00,,,0.00,Wunderground v.1.15,2013-03-30 02:00:00,
2013-03-29 20:10:00,50.1,26.1,30.02,NW,323,0.0,0.0,39,0.00,,,0.00,Wunderground v.1.15,2013-03-30 02:10:00,
2013-03-29 20:15:00,50.0,26.0,30.02,NW,323,0.0,1.0,39,0.00,,,0.00,Wunderground v.1.15,2013-03-30 02:15:00,
2013-03-29 20:20:00,49.9,26.5,30.03,NW,323,1.0,1.0,40,0.00,,,0.00,Wunderground v.1.15,2013-03-30 02:20:00,
2013-03-29 20:25:00,49.8,27.0,30.03,NW,323,1.0,1.0,41,0.00,,,0.00,Wunderground v.1.15,2013-03-30 02:25:00,
2013-03-29 20:30:00,49.8,27.0,30.03,NW,323,0.0,0.0,41,0.00,,,0.00,Wunderground v.1.15,2013-03-30 02:30:00,
2013-03-29 20:35:00,49.7,27.5,30.03,NW,323,1.0,1.0,42,0.00,,,0.00,Wunderground v.1.15,2013-03-30 02:35:00,
2013-03-29 20:40:00,49.6,27.4,30.03,NNE,17,1.0,1.0,42,0.00,,,0.00,Wunderground v.1.15,2013-03-30 02:40:00,
2013-03-29 20:50:00,49.6,27.4,30.03,NNE,15,0.0,0.0,42,0.00,,,0.00,Wunderground v.1.15,2013-03-30 02:50:00,
2013-03-29 20:55:00,49.6,27.4,30.03,NNE,15,0.0,0.0,42,0.00,,,0.00,Wunderground v.1.15,2013-03-30 02:55:00,
2013-03-29 21:05:00,49.2,27.6,30.03,NNE,15,0.0,4.0,43,0.00,,,0.00,Wunderground v.1.15,2013-03-30 03:05:00,
2013-03-29 21:15:00,48.6,28.2,30.04,NNE,15,0.0,0.0,45,0.00,,,0.00,Wunderground v.1.15,2013-03-30 03:15:00,
2013-03-29 21:20:00,48.1,28.3,30.04,NNE,15,0.0,0.0,46,0.00,,,0.00,Wunderground v.1.15,2013-03-30 03:20:00,
2013-03-29 21:25:00,47.8,27.5,30.04,NNE,15,0.0,0.0,45,0.00,,,0.00,Wunderground v.1.15,2013-03-30 03:25:00,
2013-03-29 21:30:00,47.5,27.7,30.04,NNE,20,0.0,0.0,46,0.00,,,0.00,Wunderground v.1.15,2013-03-30 03:30:00,
2013-03-29 21:35:00,47.4,27.6,30.05,NNE,20,1.0,1.0,46,0.00,,,0.00,Wunderground v.1.15,2013-03-30 03:35:00,
2013-03-29 21:40:00,47.2,28.0,30.04,NNE,19,1.0,1.0,47,0.00,,,0.00,Wunderground v.1.15,2013-03-30 03:40:00,
2013-03-29 21:45:00,46.9,28.2,30.05,NNE,20,0.0,0.0,48,0.00,,,0.00,Wunderground v.1.15,2013-03-30 03:45:00,
2013-03-29 21:50:00,46.7,27.5,30.05,NNE,19,0.0,2.0,47,0.00,,,0.00,Wunderground v.1.15,2013-03-30 03:50:00,
2013-03-29 21:55:00,46.7,27.0,30.05,NNE,24,0.0,3.0,46,0.00,,,0.00,Wunderground v.1.15,2013-03-30 03:55:00,
2013-03-29 22:00:00,46.9,27.7,30.05,NNE,28,1.0,10.0,47,0.00,,,0.00,Wunderground v.1.15,2013-03-30 04:00:00,
2013-03-29 22:05:00,47.0,27.8,30.05,NE,41,1.0,10.0,47,0.00,,,0.00,Wunderground v.1.15,2013-03-30 04:05:00,
2013-03-29 22:10:00,46.9,28.2,30.06,NE,51,1.0,10.0,48,0.00,,,0.00,Wunderground v.1.15,2013-03-30 04:10:00,
2013-03-29 22:15:00,46.9,28.7,30.06,ENE,60,1.0,2.0,49,0.00,,,0.00,Wunderground v.1.15,2013-03-30 04:15:00,
2013-03-29 22:20:00,46.7,29.0,30.06,ENE,64,1.0,2.0,50,0.00,,,0.00,Wunderground v.1.15,2013-03-30 04:20:00,
2013-03-29 22:25:00,46.5,29.3,30.06,ESE,107,2.0,2.0,51,0.00,,,0.00,Wunderground v.1.15,2013-03-30 04:25:00,
2013-03-29 22:30:00,46.4,30.2,30.06,ESE,109,2.0,2.0,53,0.00,,,0.00,Wunderground v.1.15,2013-03-30 04:30:00,
2013-03-29 22:35:00,46.1,30.4,30.07,ESE,109,1.0,1.0,54,0.00,,,0.00,Wunderground v.1.15,2013-03-30 04:35:00,
2013-03-29 22:40:00,45.8,30.1,30.07,ESE,109,1.0,1.0,54,0.00,,,0.00,Wunderground v.1.15,2013-03-30 04:40:00,
2013-03-29 22:45:00,45.4,30.2,30.07,ESE,109,1.0,1.0,55,0.00,,,0.00,Wunderground v.1.15,2013-03-30 04:45:00,
2013-03-29 22:50:00,45.0,29.8,30.07,ESE,109,1.0,1.0,55,0.00,,,0.00,Wunderground v.1.15,2013-03-30 04:50:00,
2013-03-29 23:05:00,44.1,29.8,30.07,ESE,109,0.0,4.0,57,0.00,,,0.00,Wunderground v.1.15,2013-03-30 05:05:00,
2013-03-29 23:10:00,43.7,29.9,30.07,ESE,109,0.0,4.0,58,0.00,,,0.00,Wunderground v.1.15,2013-03-30 05:10:00,
2013-03-29 23:15:00,43.4,29.6,30.07,ESE,109,0.0,0.0,58,0.00,,,0.00,Wunderground v.1.15,2013-03-30 05:15:00,
2013-03-29 23:20:00,43.1,29.7,30.07,ESE,109,0.0,0.0,59,0.00,,,0.00,Wunderground v.1.15,2013-03-30 05:20:00,
2013-03-29 23:25:00,42.9,30.0,30.07,ESE,109,0.0,0.0,60,0.00,,,0.00,Wunderground v.1.15,2013-03-30 05:25:00,
2013-03-29 23:30:00,42.9,30.0,30.07,ESE,109,0.0,0.0,60,0.00,,,0.00,Wunderground v.1.15,2013-03-30 05:30:00,
2013-03-29 23:35:00,42.9,30.0,30.07,ESE,109,0.0,0.0,60,0.00,,,0.00,Wunderground v.1.15,2013-03-30 05:35:00,
2013-03-29 23:40:00,42.8,29.9,30.06,ESE,109,1.0,3.0,60,0.00,,,0.00,Wunderground v.1.15,2013-03-30 05:40:00,
2013-03-29 23:45:00,42.7,29.8,30.06,ESE,109,1.0,2.0,60,0.00,,,0.00,Wunderground v.1.15,2013-03-30 05:45:00,
2013-03-29 23:50:00,42.5,29.6,30.06,ESE,109,1.0,2.0,60,0.00,,,0.00,Wunderground v.1.15,2013-03-30 05:50:00,